Corinth Corners, Vermont
Current Conditions -  °F | °C
As of 6:30 AM on Thursday 18 Dec 2014 (Local Time) from KMPV Reporting Station
Light Snow Light Snow  
Wind Chill: -4°   Ceiling: 2300
Heat Index:   Visibility: 4mi
Dew Point: -1°   Wind: 8mph
Humidity: 92%   Direction: 320°NW
Pressure: 29.76"   Gusts: NA
Location:  44.0361°N, 72.2949°W
Report Text: KMPV 181130Z AUTO 32007KT 4SM -SN BR FEW011 BKN023 OVC031 00/M01 A2976 RMK AO2 P0000 T00001011
Loading
Personal Weather Stations






























Interactive Weather Map New forecast layout! Learn more

10-Day Weather Forecast

Advertisements
Track Severe Weather on mobile